Latest Weather Observations for Cleve Airport

IDS60801

Issued at 11:05 am CST Friday 22 August 2014 (issued every 30 minutes, with the page automatically refreshed every 10 minutes)

About weather observations | Map of weather stations | Latest weather observations for SA | Other Formats
Station Details ID: 018116 Name: CLEVE AERODROME Lat: -33.71 Lon: 136.50 Height: 175.0 m
Data from the previous 72 hours. | See also: Recent months at Cleve Airport
Date/Time
CST
Temp
°C
App
Temp
°C
Dew
Point
Rel
Hum
%
Delta-T
°C
Wind Press
QNH
hPa
Press
MSL
hPa
Rain
since 9 am
mm
Dir
 
Spd
km/h
Gust
km/h
Spd
kts
Gust
kts
22/11:00am 19.0 10.8 4.7 39 6.9 N 37 52 20 28 1023.3 - 0.0
22/10:30am 18.1 10.5 3.9 39 6.7 N 33 52 18 28 1023.6 - 0.0
22/10:01am 17.3 9.4 4.6 43 6.1 N 35 54 19 29 1023.8 - 0.0
22/10:00am 17.1 8.9 4.8 44 5.9 N 37 54 20 29 1023.8 - 0.0
22/09:35am 16.2 8.7 4.3 45 5.6 N 33 54 18 29 1023.9 - 0.0
22/09:30am 16.0 7.8 5.0 48 5.3 N 37 52 20 28 1023.9 - 0.0
22/09:00am 15.1 6.5 4.5 49 5.0 N 39 52 21 28 1023.9 1024.0 0.2
22/08:30am 14.4 6.1 4.4 51 4.7 N 37 50 20 27 1023.9 - 0.2
22/08:00am 13.7 6.2 4.3 53 4.3 N 33 44 18 24 1023.8 - 0.2
22/07:30am 13.2 5.6 4.1 54 4.2 N 33 43 18 23 1023.6 - 0.2
22/07:00am 12.6 5.9 3.8 55 4.0 N 28 39 15 21 1023.3 - 0.2
22/06:30am 11.6 6.5 3.9 59 3.5 N 20 30 11 16 1023.0 - 0.2
22/06:00am 11.7 6.1 3.7 58 3.6 N 22 28 12 15 1022.7 1022.8 0.2
22/05:30am 11.5 6.9 3.8 59 3.5 N 17 24 9 13 1022.6 - 0.2
22/05:00am 11.1 7.0 4.1 62 3.2 N 15 22 8 12 1022.5 - 0.2
22/04:30am 11.7 6.8 4.2 60 3.4 N 19 24 10 13 1022.3 - 0.2
22/04:00am 12.2 7.2 4.4 59 3.6 N 20 28 11 15 1022.2 - 0.2
22/03:30am 11.0 7.4 5.1 67 2.7 N 13 24 7 13 1022.4 - 0.2
22/03:00am 7.9 5.5 4.3 78 1.6 NE 6 7 3 4 1022.6 1022.7 0.2
22/02:30am 8.8 6.4 5.4 79 1.5 NNE 7 9 4 5 1023.0 - 0.2
22/02:00am 8.6 5.9 5.5 81 1.4 NNE 9 13 5 7 1023.3 - 0.2
22/01:30am 9.2 5.4 5.9 80 1.5 N 15 19 8 10 1023.3 - 0.2
22/01:00am 9.5 5.4 6.0 79 1.6 N 17 19 9 10 1023.5 - 0.2
22/12:30am 9.3 5.9 6.0 80 1.5 N 13 17 7 9 1023.6 - 0.2
22/12:00am 9.7 6.0 6.1 78 1.7 NNE 15 17 8 9 1023.8 1023.9 0.2
 
Date/Time
CST
Temp
°C
App
Temp
°C
Dew
Point
Rel
Hum
%
Delta-T
°C
Wind Press
QNH
hPa
Press
MSL
hPa
Rain
since 9 am
mm
Dir
 
Spd
km/h
Gust
km/h
Spd
kts
Gust
kts
21/11:30pm 10.8 7.1 6.4 74 2.1 N 15 17 8 9 1023.9 - 0.2
21/11:00pm 11.0 7.0 6.6 74 2.1 N 17 20 9 11 1024.0 - 0.2
21/10:30pm 11.7 7.0 6.2 69 2.6 NNE 20 22 11 12 1024.0 - 0.2
21/10:00pm 11.2 6.7 5.9 70 2.5 N 19 20 10 11 1024.3 - 0.2
21/09:30pm 11.3 6.7 5.8 69 2.6 NNE 19 22 10 12 1024.0 - 0.2
21/09:00pm 11.9 7.1 5.8 66 2.9 NNE 20 22 11 12 1023.9 1024.0 0.2
21/08:30pm 12.1 7.3 5.7 65 3.0 NNE 20 24 11 13 1023.7 - 0.2
21/08:00pm 11.8 7.3 5.9 67 2.8 NNE 19 22 10 12 1023.5 - 0.2
21/07:30pm 12.1 8.0 6.4 68 2.7 NNE 17 22 9 12 1023.2 - 0.2
21/07:00pm 10.6 7.3 6.2 74 2.1 NNE 13 15 7 8 1022.9 - 0.2
21/06:30pm 11.7 8.7 6.2 69 2.6 NE 11 13 6 7 1022.6 - 0.2
21/06:00pm 14.2 9.9 6.8 61 3.6 E 19 26 10 14 1022.2 1022.3 0.2
21/05:30pm 14.9 11.9 7.5 61 3.7 E 13 17 7 9 1022.0 - 0.2
21/05:00pm 16.4 12.5 7.3 55 4.6 SE 17 24 9 13 1021.8 - 0.2
21/04:30pm 18.7 16.2 6.5 45 6.1 WSW 9 17 5 9 1021.5 - 0.2
21/04:00pm 19.1 16.2 4.8 39 7.0 N 9 15 5 8 1021.5 - 0.2
21/03:30pm 18.5 14.6 5.4 42 6.4 N 15 20 8 11 1021.6 - 0.2
21/03:00pm 17.4 14.0 5.7 46 5.7 N 13 19 7 10 1021.7 1021.8 0.2
21/02:30pm 19.3 15.6 6.4 43 6.5 NNE 15 22 8 12 1021.9 - 0.2
21/02:00pm 19.4 15.7 6.5 43 6.5 N 15 24 8 13 1022.1 - 0.2
21/01:30pm 19.2 15.3 7.0 45 6.2 N 17 26 9 14 1022.5 - 0.0
21/01:00pm 18.4 13.8 6.6 46 5.9 N 20 33 11 18 1022.9 - 0.0
21/12:30pm 18.3 14.9 7.7 50 5.4 N 15 22 8 12 1023.5 - 0.0
21/12:00pm 17.2 12.8 7.3 52 5.0 NNE 20 32 11 17 1024.0 1024.1 0.0
21/11:30am 17.3 14.2 8.7 57 4.5 N 15 24 8 13 1024.5 - 0.0
21/11:00am 16.6 12.6 8.1 57 4.3 NNE 19 26 10 14 1024.8 - 0.0
21/10:30am 15.7 11.3 7.5 58 4.1 NNE 20 28 11 15 1025.0 - 0.0
21/10:00am 15.5 11.5 8.3 62 3.7 NNE 19 28 10 15 1025.1 - 0.0
21/09:30am 14.2 9.4 7.5 64 3.3 NNE 22 28 12 15 1025.3 - 0.0
21/09:00am 13.0 8.8 7.5 69 2.7 NNE 19 24 10 13 1025.4 1025.5 0.0
21/08:30am 11.4 7.5 7.1 75 2.1 NNE 17 20 9 11 1025.4 - 0.0
21/08:00am 9.6 5.2 6.5 81 1.5 N 19 22 10 12 1025.3 - 0.0
21/07:30am 7.9 3.3 5.7 86 1.0 N 19 22 10 12 1025.1 - 0.0
21/07:00am 7.5 2.9 5.5 87 0.9 N 19 22 10 12 1024.9 - 0.0
21/06:30am 7.3 2.6 5.3 87 0.9 N 19 22 10 12 1024.7 - 0.0
21/06:00am 7.1 2.8 5.4 89 0.8 N 17 22 9 12 1024.4 1024.4 0.0
21/05:30am 5.3 2.6 3.8 90 0.6 NNE 7 9 4 5 1024.4 - 0.0
21/05:00am 6.2 3.0 5.2 93 0.4 NNE 11 15 6 8 1024.3 - 0.0
21/04:30am 5.8 3.3 4.6 92 0.5 ENE 7 11 4 6 1024.3 - 0.0
21/04:00am 6.2 3.5 5.5 95 0.3 NE 9 15 5 8 1024.5 - 0.0
21/03:30am 4.8 1.4 4.2 96 0.3 NE 11 13 6 7 1024.7 - 0.0
21/03:00am 4.9 1.6 4.3 96 0.3 NNE 11 13 6 7 1025.0 1025.1 0.0
21/02:30am 4.7 1.3 4.0 95 0.3 NE 11 13 6 7 1025.1 - 0.0
21/02:00am 4.8 1.1 4.2 96 0.3 NNE 13 15 7 8 1025.3 - 0.0
21/01:30am 4.5 0.7 3.8 95 0.3 NE 13 13 7 7 1025.5 - 0.0
21/01:00am 4.6 1.2 4.0 96 0.3 NE 11 13 6 7 1025.7 - 0.0
21/12:30am 5.2 1.5 4.3 94 0.4 ENE 13 15 7 8 1025.7 - 0.0
21/12:00am 5.0 1.2 4.1 94 0.4 NE 13 15 7 8 1025.9 1026.0 0.0
 
Date/Time
CST
Temp
°C
App
Temp
°C
Dew
Point
Rel
Hum
%
Delta-T
°C
Wind Press
QNH
hPa
Press
MSL
hPa
Rain
since 9 am
mm
Dir
 
Spd
km/h
Gust
km/h
Spd
kts
Gust
kts
20/11:30pm 5.0 1.2 4.0 93 0.4 NE 13 13 7 7 1026.0 - 0.0
20/11:00pm 4.8 1.4 3.8 93 0.4 ENE 11 15 6 8 1026.1 - 0.0
20/10:30pm 5.3 2.0 4.4 94 0.4 ENE 11 13 6 7 1026.1 - 0.0
20/10:00pm 4.8 1.4 3.9 94 0.4 NE 11 13 6 7 1026.2 - 0.0
20/09:30pm 5.4 2.1 4.5 94 0.4 ENE 11 13 6 7 1026.2 - 0.0
20/09:00pm 5.4 2.1 4.5 94 0.4 ENE 11 11 6 6 1026.2 1026.3 0.0
20/08:30pm 5.6 3.0 4.4 92 0.5 ENE 7 9 4 5 1026.0 - 0.0
20/08:00pm 6.0 3.5 4.8 92 0.5 NE 7 9 4 5 1026.0 - 0.0
20/07:30pm 6.4 3.9 4.7 89 0.7 ENE 7 9 4 5 1025.6 - 0.0
20/07:00pm 6.7 4.2 4.9 88 0.8 E 7 9 4 5 1025.5 - 0.0
20/06:30pm 7.2 4.8 5.2 87 0.9 ENE 7 9 4 5 1025.3 - 0.0
20/06:00pm 9.4 6.0 5.9 79 1.6 ESE 13 19 7 10 1025.0 1025.1 0.0
20/05:30pm 10.9 6.5 6.5 74 2.1 ESE 19 24 10 13 1024.7 - 0.0
20/05:00pm 11.8 6.8 6.3 69 2.6 ESE 22 32 12 17 1024.5 - 0.0
20/04:30pm 12.7 7.4 6.7 67 2.9 ESE 24 33 13 18 1024.3 - 0.0
20/04:00pm 12.5 7.4 6.1 65 3.0 ESE 22 32 12 17 1024.1 - 0.0
20/03:30pm 12.8 7.4 6.2 64 3.2 ESE 24 33 13 18 1024.1 - 0.0
20/03:00pm 13.2 8.2 6.5 64 3.2 ESE 22 30 12 16 1024.3 1024.3 0.0
20/02:30pm 12.8 7.4 6.4 65 3.1 SE 24 32 13 17 1024.5 - 0.0
20/02:00pm 13.0 8.0 6.4 64 3.2 SE 22 30 12 16 1024.6 - 0.0
20/01:30pm 13.2 8.5 6.1 62 3.4 ESE 20 26 11 14 1024.7 - 0.0
20/01:00pm 13.3 9.9 5.7 60 3.6 ESE 13 22 7 12 1025.2 - 0.0
20/12:30pm 13.4 9.1 5.3 58 3.8 E 17 28 9 15 1025.6 - 0.0
20/12:00pm 12.9 8.6 5.1 59 3.6 E 17 24 9 13 1026.1 1026.2 0.0
20/11:30am 12.6 8.5 6.4 66 3.0 ESE 17 24 9 13 1026.5 - 0.0
20/11:00am 12.3 8.5 5.9 65 3.0 E 15 20 8 11 1026.7 - 0.0
20/10:30am 12.2 8.5 6.3 67 2.8 E 15 20 8 11 1026.9 - 0.0
20/10:00am 12.2 8.2 6.7 69 2.6 E 17 24 9 13 1027.1 - 0.0
20/09:30am 11.4 7.0 6.5 72 2.3 E 19 24 10 13 1027.1 - 0.0
20/09:00am 10.7 6.2 6.3 74 2.1 E 19 24 10 13 1027.0 1027.1 0.0
20/08:30am 9.7 6.7 6.2 79 1.6 ENE 11 15 6 8 1026.8 - 0.0
20/08:00am 7.1 3.9 5.3 88 0.8 NE 11 13 6 7 1026.5 - 0.0
20/07:30am 5.1 1.3 4.1 93 0.4 NE 13 17 7 9 1026.2 - 0.0
20/07:00am 2.9 -1.0 1.4 90 0.6 NE 11 13 6 7 1026.0 - 0.0
20/06:30am 3.7 -0.4 2.4 91 0.5 NE 13 15 7 8 1025.5 - 0.0
20/06:00am 3.2 -1.0 1.9 91 0.5 NE 13 15 7 8 1025.4 1025.5 0.0
20/05:30am 3.3 -0.8 2.0 91 0.5 NE 13 15 7 8 1025.3 - 0.0
20/05:00am 3.7 0.0 2.5 92 0.5 NE 11 13 6 7 1025.1 - 0.0
20/04:30am 3.8 0.6 2.8 93 0.4 NE 9 11 5 6 1025.0 - 0.0
20/04:00am 3.8 0.6 2.8 93 0.4 NE 9 13 5 7 1024.9 - 0.0
20/03:30am 3.8 -0.2 2.6 92 0.5 NE 13 15 7 8 1025.0 - 0.0
20/03:00am 3.8 -0.3 2.0 88 0.7 NNE 13 15 7 8 1025.3 1025.4 0.0
20/02:30am 4.0 -0.5 2.0 87 0.8 NNE 15 17 8 9 1025.5 - 0.0
20/02:00am 4.4 -0.1 2.4 87 0.8 NNE 15 15 8 8 1025.6 - 0.0
20/01:30am 3.7 0.0 2.1 89 0.6 NE 11 13 6 7 1025.6 - 0.0
20/01:00am 3.9 -0.2 2.1 88 0.7 NE 13 15 7 8 1025.7 - 0.0
20/12:30am 5.1 0.7 2.8 85 0.9 NE 15 17 8 9 1025.7 - 0.0
20/12:00am 5.7 1.0 2.9 82 1.2 ENE 17 19 9 10 1025.9 1026.0 0.0
 
Date/Time
CST
Temp
°C
App
Temp
°C
Dew
Point
Rel
Hum
%
Delta-T
°C
Wind Press
QNH
hPa
Press
MSL
hPa
Rain
since 9 am
mm
Dir
 
Spd
km/h
Gust
km/h
Spd
kts
Gust
kts
19/11:30pm 5.9 1.9 3.1 82 1.2 NE 13 17 7 9 1026.0 - 0.0
19/11:00pm 5.9 2.7 3.1 82 1.2 ENE 9 11 5 6 1026.1 - 0.0
19/10:30pm 6.0 2.8 3.2 82 1.2 NE 9 13 5 7 1026.3 - 0.0
19/10:00pm 7.5 5.0 3.7 77 1.6 NNE 6 7 3 4 1026.4 - 0.0
19/09:30pm 6.9 3.6 4.4 84 1.1 NNE 11 13 6 7 1026.5 - 0.0
19/09:00pm 5.2 1.4 3.7 90 0.6 N 13 15 7 8 1026.5 1026.6 0.0
19/08:30pm 3.8 -0.3 2.0 88 0.7 NNE 13 13 7 7 1026.4 - 0.0
19/08:00pm 3.9 0.2 2.1 88 0.7 NNE 11 13 6 7 1026.2 - 0.0
19/07:30pm 4.2 0.1 2.2 87 0.8 ENE 13 13 7 7 1026.0 - 0.0
19/07:00pm 4.6 0.9 2.5 86 0.9 ENE 11 13 6 7 1025.9 - 0.0
19/06:30pm 6.0 2.4 2.8 80 1.3 E 11 13 6 7 1025.6 - 0.0
19/06:00pm 9.1 4.8 3.1 66 2.6 ESE 15 17 8 9 1025.5 1025.6 0.0
19/05:30pm 11.2 6.4 2.8 56 3.7 ESE 17 22 9 12 1025.1 - 0.0
19/05:00pm 11.8 7.0 2.5 53 4.1 SE 17 22 9 12 1025.0 - 0.0
19/04:30pm 12.2 6.7 2.1 50 4.4 SE 20 26 11 14 1024.8 - 0.0
19/04:00pm 13.0 7.6 2.5 49 4.6 SE 20 26 11 14 1024.9 - 0.0
19/03:30pm 13.7 8.4 3.2 49 4.7 SE 20 24 11 13 1024.7 - 0.0
19/03:00pm 13.4 8.2 2.6 48 4.8 SE 19 26 10 14 1024.7 1024.8 0.0
19/02:30pm 13.9 9.2 3.1 48 4.9 ESE 17 24 9 13 1024.8 - 0.0
19/02:00pm 14.2 10.4 3.7 49 4.8 SE 13 20 7 11 1024.7 - 0.0
19/01:30pm 13.7 8.7 3.5 50 4.6 ESE 19 26 10 14 1024.9 - 0.0
19/01:00pm 14.0 9.2 4.6 53 4.4 ESE 19 28 10 15 1025.2 - 0.0
19/12:30pm 13.5 9.4 4.4 54 4.2 ESE 15 20 8 11 1025.6 - 0.0
19/12:00pm 13.3 8.9 4.7 56 4.0 ESE 17 24 9 13 1026.0 1026.1 0.0
19/11:30am 13.1 9.2 5.5 60 3.6 E 15 22 8 12 1026.2 - 0.0

Other Formats:

Comma delimited format used in spreadsheet applications
http://www.bom.gov.au/fwo/IDS60801/IDS60801.94662.axf

JavaScript Object Notation format (JSON) in row-major order
http://www.bom.gov.au/fwo/IDS60801/IDS60801.94662.json